Observations for PIACENZA IT-AFB, Italy (LIMS)

LIMS 180655Z 26003KT 9999 FEW030 23/22 Q1015
LIMS 180655Z 26003KT 9999 FEW030 23/22 Q1015 RMK SCT SCT200 VIS MIN 9999 WIND THR30 00000KT BLU
LIMS 180555Z 27003KT 9999 FEW030 20/20 Q1015
LIMS 180555Z 27003KT 9999 FEW030 20/20 Q1015 RMK SCT SCT200 VIS MIN 9999 WIND THR30 00000KT BLU
LIMS 171755Z 12008KT 9999 FEW040 28/20 Q1013 RMK FEW VIS MIN 9999 WIND THR30 11004KT BLU
LIMS 171655Z 14006KT 9999 FEW040 29/20 Q1013
LIMS 171655Z 14006KT 9999 FEW040 29/20 Q1013 RMK FEW VIS MIN 9999 WIND THR30 12003KT BLU
LIMS 171555Z 13006KT 9999 FEW040 30/19 Q1013 RMK FEW VIS MIN 9999 WIND THR30 10003KT BLU
LIMS 171455Z 08008KT 9999 SCT040 30/19 Q1013
LIMS 171455Z 08008KT 9999 SCT040 30/19 Q1013 RMK SCT VIS MIN 9999 WIND THR30 09004KT BLU
LIMS 171355Z 11006KT 9999 FEW040 30/19 Q1014 RMK FEW VIS MIN 9999 WIND THR30 11005KT BLU
LIMS 171255Z 08006KT 9999 FEW040 30/21 Q1014
LIMS 171255Z 08006KT 9999 FEW040 30/21 Q1014 RMK FEW VIS MIN 9999 WIND THR30 11004KT BLU
LIMS 171155Z 13007KT 9999 FEW040 29/21 Q1015
LIMS 171155Z 13007KT 9999 FEW040 29/21 Q1015 RMK FEW VIS MIN 9999 WIND THR30 28004KT BLU
LIMS 171055Z 11008KT 9999 FEW040 28/21 Q1015
LIMS 171055Z 11008KT 9999 FEW040 28/21 Q1015 RMK FEW VIS MIN 9999 WIND THR30 09005KT BLU
LIMS 170955Z 11010KT CAVOK 29/20 Q1015  
LIMS 170955Z 11010KT CAVOK 29/20 Q1015 RMK SKC VIS MIN 9999 WIND THR30 08010KT BLU
LIMS 170855Z 11012KT 9999 FEW040 27/20 Q1016 RMK FEW VIS MIN 9999 WIND THR30 09011KT BLU
LIMS 170755Z 13009KT CAVOK 25/19 Q1015  
LIMS 170755Z 13009KT CAVOK 25/19 Q1015 RMK FEW FEW100 VIS MIN 9999 WIND THR30 11006KT BLU
LIMS 170655Z 13002KT CAVOK 24/18 Q1015 RMK FEW FEW100 VIS MIN 9999 WIND THR30 00000KT BLU